Time;durP1;ratioP1;P1;durP2;ratioP2;P2;SDS_P1;SDS_P2;PMS_P1;PMS_P2;Temp;Humidity;BMP_temperature;BMP_pressure;BME280_temperature;BME280_humidity;BME280_pressure;Samples;Min_cycle;Max_cycle;Signal;HPM_P1;HPM_P2
2021/01/17 00:00:10;;;;;;;1.95;1.70;;;19.80;21.60;;;;;;5033910;28;20156;-50
2021/01/17 00:02:36;;;;;;;1.95;1.85;;;19.80;21.60;;;;;;5033645;28;20171;-49
2021/01/17 00:05:05;;;;;;;2.07;1.87;;;19.80;21.60;;;;;;5033702;28;20187;-50
2021/01/17 00:07:31;;;;;;;2.17;2.00;;;19.80;21.60;;;;;;5033171;28;20480;-50
2021/01/17 00:09:56;;;;;;;1.90;1.80;;;19.80;21.60;;;;;;5016435;28;20175;-50
2021/01/17 00:12:23;;;;;;;1.70;1.60;;;19.80;21.60;;;;;;5033563;28;20163;-50
2021/01/17 00:14:49;;;;;;;2.22;1.85;;;19.80;21.60;;;;;;5033744;28;20234;-49
2021/01/17 00:17:14;;;;;;;1.90;1.80;;;19.80;21.60;;;;;;5033294;28;20278;-50
2021/01/17 00:19:43;;;;;;;1.37;1.27;;;19.80;21.60;;;;;;5034011;28;20192;-50
2021/01/17 00:22:08;;;;;;;1.88;1.77;;;19.70;21.60;;;;;;5033362;28;20156;-50
2021/01/17 00:24:34;;;;;;;2.37;2.17;;;19.70;21.60;;;;;;5033381;28;20699;-50
2021/01/17 00:26:59;;;;;;;1.90;1.70;;;19.70;21.60;;;;;;5033040;28;20160;-50
2021/01/17 00:29:25;;;;;;;2.00;1.80;;;19.70;21.60;;;;;;5033271;28;20182;-50
2021/01/17 00:31:51;;;;;;;2.33;2.13;;;19.70;21.60;;;;;;5033660;28;20164;-53
2021/01/17 00:34:17;;;;;;;2.03;1.57;;;19.70;21.60;;;;;;5015649;28;20896;-52
2021/01/17 00:36:43;;;;;;;1.70;1.60;;;19.70;21.60;;;;;;5033436;28;20203;-51
2021/01/17 00:39:08;;;;;;;1.97;1.83;;;19.70;21.60;;;;;;5033088;28;20155;-50
2021/01/17 00:41:35;;;;;;;1.70;1.60;;;19.70;21.60;;;;;;5033534;28;20540;-50
2021/01/17 00:44:02;;;;;;;3.15;2.00;;;19.70;21.60;;;;;;5033519;28;20380;-49
2021/01/17 00:46:36;;;;;;;1.98;1.77;;;19.70;21.60;;;;;;5033396;28;20156;-50
2021/01/17 00:49:01;;;;;;;2.75;1.50;;;19.70;21.60;;;;;;5033405;28;20151;-51
2021/01/17 00:51:36;;;;;;;1.50;1.40;;;19.70;21.60;;;;;;5015835;28;20163;-50
2021/01/17 00:54:02;;;;;;;2.00;1.90;;;19.70;22.20;;;;;;5033022;28;20944;-50
2021/01/17 00:56:27;;;;;;;1.80;1.60;;;19.70;21.60;;;;;;5033021;28;20187;-50
2021/01/17 00:58:53;;;;;;;1.73;1.63;;;19.70;21.60;;;;;;5033088;28;20190;-50
2021/01/17 01:01:18;;;;;;;1.63;1.53;;;19.70;21.60;;;;;;5031487;28;20643;-50
2021/01/17 01:03:44;;;;;;;2.10;1.80;;;19.70;21.60;;;;;;5033204;28;20208;-50
2021/01/17 01:06:17;;;;;;;2.00;1.90;;;19.70;21.60;;;;;;5033092;28;20238;-50
2021/01/17 01:08:42;;;;;;;1.75;1.65;;;19.70;21.60;;;;;;5032917;28;20519;-50
2021/01/17 01:11:08;;;;;;;1.80;1.70;;;19.70;21.60;;;;;;5033060;28;20630;-50
2021/01/17 01:13:33;;;;;;;1.60;1.50;;;19.70;21.60;;;;;;5015440;28;20164;-50
2021/01/17 01:15:59;;;;;;;1.93;1.50;;;19.70;21.60;;;;;;5033128;28;20160;-50
2021/01/17 01:18:25;;;;;;;2.03;1.83;;;19.70;21.60;;;;;;5033051;28;20187;-50
2021/01/17 01:20:50;;;;;;;1.67;1.57;;;19.70;21.70;;;;;;5033228;28;20222;-49
2021/01/17 01:23:16;;;;;;;1.83;1.73;;;19.70;21.60;;;;;;5032881;28;20167;-50
2021/01/17 01:25:41;;;;;;;1.77;1.67;;;19.70;21.60;;;;;;5032966;28;20621;-50
2021/01/17 01:28:07;;;;;;;2.20;2.00;;;19.70;21.60;;;;;;5033130;28;20199;-50
2021/01/17 01:30:33;;;;;;;1.70;1.60;;;19.70;21.60;;;;;;5032879;28;20239;-50
2021/01/17 01:32:58;;;;;;;1.83;1.73;;;19.70;21.60;;;;;;5032848;28;20198;-51
2021/01/17 01:35:24;;;;;;;1.67;1.57;;;19.70;21.60;;;;;;5032846;28;20637;-51
2021/01/17 01:37:49;;;;;;;1.70;1.60;;;19.70;21.60;;;;;;5034111;28;20194;-49
2021/01/17 01:40:15;;;;;;;2.20;1.60;;;19.70;21.60;;;;;;5036369;28;20603;-51
2021/01/17 01:42:47;;;;;;;2.07;1.47;;;19.70;22.20;;;;;;5036361;28;20152;-51
2021/01/17 01:45:16;;;;;;;3.00;1.80;;;19.70;21.60;;;;;;5036443;28;20630;-50
2021/01/17 01:47:41;;;;;;;2.20;1.95;;;19.70;21.60;;;;;;5036542;28;20180;-51
2021/01/17 01:50:08;;;;;;;1.50;1.40;;;19.70;21.60;;;;;;5036402;28;20164;-50
2021/01/17 01:52:34;;;;;;;2.33;2.13;;;19.70;21.60;;;;;;5035780;28;20166;-49
2021/01/17 01:55:00;;;;;;;1.90;1.80;;;19.70;21.60;;;;;;5036353;28;20243;-50
2021/01/17 01:57:25;;;;;;;2.17;2.00;;;19.70;21.60;;;;;;5036211;28;20471;-50
2021/01/17 01:59:51;;;;;;;1.60;1.50;;;19.70;21.60;;;;;;5036156;28;20410;-51
2021/01/17 02:02:17;;;;;;;2.10;1.90;;;19.70;21.60;;;;;;5036039;28;20181;-49
2021/01/17 02:04:46;;;;;;;1.60;1.50;;;19.80;21.70;;;;;;5036253;28;20159;-50
2021/01/17 02:07:21;;;;;;;1.58;1.48;;;19.70;21.60;;;;;;5035195;28;20236;-51
2021/01/17 02:09:48;;;;;;;1.42;1.33;;;19.70;21.60;;;;;;5036029;28;20195;-49
2021/01/17 02:12:30;;;;;;;1.63;1.52;;;19.70;21.60;;;;;;5035790;28;20463;-50
2021/01/17 02:15:01;;;;;;;1.88;1.77;;;19.70;21.60;;;;;;5035989;28;20178;-50
2021/01/17 02:17:31;;;;;;;1.50;1.40;;;19.70;21.60;;;;;;5035716;28;20226;-51
2021/01/17 02:20:16;;;;;;;1.25;1.15;;;19.70;21.60;;;;;;5035979;28;20235;-50
2021/01/17 02:23:01;;;;;;;2.30;1.52;;;19.70;21.60;;;;;;5035429;28;20163;-52
2021/01/17 02:25:33;;;;;;;2.17;2.05;;;19.80;21.60;;;;;;5035698;28;20160;-49
2021/01/17 02:28:01;;;;;;;2.05;1.83;;;19.70;21.60;;;;;;5035626;28;20159;-49
2021/01/17 02:30:30;;;;;;;1.58;1.48;;;19.80;21.70;;;;;;5018014;28;20554;-51
2021/01/17 02:33:01;;;;;;;1.85;1.75;;;19.80;21.60;;;;;;5035582;28;20156;-49
2021/01/17 02:35:29;;;;;;;1.85;1.75;;;19.80;21.60;;;;;;5035497;28;20159;-50
2021/01/17 02:38:31;;;;;;;1.55;1.45;;;19.80;21.60;;;;;;5034971;28;20623;-50
2021/01/17 02:41:33;;;;;;;1.33;1.23;;;19.80;21.60;;;;;;5035450;28;20156;-50
2021/01/17 02:44:01;;;;;;;2.03;1.83;;;19.80;21.60;;;;;;5035337;28;20183;-50
2021/01/17 02:46:26;;;;;;;2.00;1.80;;;19.80;21.60;;;;;;5035296;28;20638;-50
2021/01/17 02:48:52;;;;;;;2.07;1.87;;;19.80;21.60;;;;;;5034700;28;20210;-51
2021/01/17 02:51:17;;;;;;;1.73;1.63;;;19.80;21.60;;;;;;5035173;28;20166;-50
2021/01/17 02:54:03;;;;;;;1.57;1.47;;;19.80;21.60;;;;;;5034726;28;20603;-50
2021/01/17 02:56:32;;;;;;;1.90;1.80;;;19.80;21.60;;;;;;5035140;28;20148;-50
2021/01/17 02:58:58;;;;;;;1.73;1.60;;;19.80;21.60;;;;;;5035038;28;20239;-50
2021/01/17 03:01:29;;;;;;;1.95;1.85;;;19.80;21.60;;;;;;5034808;28;20195;-49
2021/01/17 03:04:10;;;;;;;1.33;1.23;;;19.80;21.60;;;;;;5034968;28;20163;-50
2021/01/17 03:06:39;;;;;;;1.50;1.40;;;19.80;21.60;;;;;;5034708;28;20255;-50
2021/01/17 03:09:05;;;;;;;1.85;1.70;;;19.80;21.60;;;;;;5034357;28;20607;-50
2021/01/17 03:11:31;;;;;;;1.77;1.67;;;19.80;21.60;;;;;;5034660;28;20217;-50
2021/01/17 03:13:56;;;;;;;2.70;1.63;;;19.80;21.60;;;;;;5034764;28;20156;-50
2021/01/17 03:16:22;;;;;;;1.90;1.70;;;19.80;21.60;;;;;;5034660;28;20155;-50
2021/01/17 03:18:47;;;;;;;1.70;1.60;;;19.80;21.60;;;;;;5034457;28;20669;-50
2021/01/17 03:21:13;;;;;;;1.90;1.80;;;19.80;21.60;;;;;;5034597;28;20160;-49
2021/01/17 03:23:39;;;;;;;1.77;1.67;;;19.80;21.60;;;;;;5034020;28;20615;-50
2021/01/17 03:26:04;;;;;;;2.13;1.73;;;19.80;21.60;;;;;;5034511;28;20247;-49
2021/01/17 03:28:30;;;;;;;1.47;1.37;;;19.80;21.60;;;;;;5034509;28;20188;-50
2021/01/17 03:30:56;;;;;;;2.30;2.10;;;19.80;22.10;;;;;;5034588;28;20605;-50
2021/01/17 03:33:21;;;;;;;1.40;1.30;;;19.80;21.60;;;;;;5034348;28;20211;-50
2021/01/17 03:35:47;;;;;;;1.63;1.53;;;19.80;21.60;;;;;;5034314;28;20171;-50
2021/01/17 03:38:13;;;;;;;1.87;1.77;;;19.80;21.60;;;;;;5033692;28;20195;-49
2021/01/17 03:40:38;;;;;;;1.93;1.57;;;19.80;21.50;;;;;;5034390;28;20167;-49
2021/01/17 03:43:04;;;;;;;1.43;1.33;;;19.80;21.50;;;;;;5034328;28;20480;-50
2021/01/17 03:45:29;;;;;;;2.07;1.63;;;19.80;21.50;;;;;;5034298;28;20171;-50
2021/01/17 03:47:55;;;;;;;1.80;1.70;;;19.80;21.60;;;;;;5034047;28;20160;-50
2021/01/17 03:50:21;;;;;;;1.50;1.37;;;19.80;21.60;;;;;;5034235;28;20168;-53
2021/01/17 03:52:46;;;;;;;1.80;1.70;;;19.80;21.60;;;;;;5033614;28;20624;-54
2021/01/17 03:55:15;;;;;;;1.90;1.80;;;19.80;21.70;;;;;;5034147;28;20633;-53
2021/01/17 03:57:40;;;;;;;1.80;1.60;;;19.80;21.70;;;;;;5033907;28;20202;-50
2021/01/17 04:00:07;;;;;;;1.73;1.63;;;19.80;21.80;;;;;;5034004;28;20160;-50
2021/01/17 04:02:33;;;;;;;1.80;1.50;;;19.80;21.70;;;;;;5033068;28;20643;-50
2021/01/17 04:04:58;;;;;;;1.60;1.50;;;19.80;21.50;;;;;;5034243;28;20175;-49
2021/01/17 04:07:26;;;;;;;2.20;2.03;;;19.90;22.20;;;;;;5032847;28;20230;-50
2021/01/17 04:09:52;;;;;;;2.00;1.80;;;19.90;22.00;;;;;;5033698;28;20629;-49
2021/01/17 04:12:18;;;;;;;1.53;1.43;;;19.80;22.10;;;;;;5033694;28;20251;-51
2021/01/17 04:14:43;;;;;;;1.60;1.50;;;19.90;22.60;;;;;;5033859;28;20166;-51
2021/01/17 04:17:09;;;;;;;1.67;1.57;;;19.90;22.50;;;;;;5033541;28;20258;-50
2021/01/17 04:19:34;;;;;;;1.87;1.77;;;19.90;23.00;;;;;;5033696;28;20183;-50
2021/01/17 04:22:00;;;;;;;1.97;1.87;;;19.90;23.20;;;;;;5033680;28;20156;-50
2021/01/17 04:24:26;;;;;;;1.60;1.50;;;19.90;23.10;;;;;;5033123;28;20597;-50
2021/01/17 04:27:02;;;;;;;1.70;1.60;;;19.90;21.60;;;;;;5033581;28;20156;-50
2021/01/17 04:29:27;;;;;;;1.58;1.48;;;19.90;21.60;;;;;;5033793;28;20243;-51
2021/01/17 04:31:54;;;;;;;1.50;1.40;;;19.90;21.50;;;;;;5033443;28;20250;-51
2021/01/17 04:34:22;;;;;;;1.33;1.23;;;19.90;21.50;;;;;;5033281;28;20160;-50
2021/01/17 04:36:48;;;;;;;2.30;1.70;;;19.90;21.50;;;;;;5033307;28;20672;-51
2021/01/17 04:39:13;;;;;;;1.70;1.60;;;19.90;21.60;;;;;;5015201;28;20160;-50
2021/01/17 04:41:42;;;;;;;1.77;1.50;;;19.90;21.50;;;;;;5033394;28;20781;-50
2021/01/17 04:44:09;;;;;;;1.20;1.10;;;19.90;21.50;;;;;;5033354;28;20414;-50
2021/01/17 04:46:37;;;;;;;1.67;1.58;;;19.90;21.50;;;;;;5033289;28;20184;-50
2021/01/17 04:49:05;;;;;;;1.73;1.45;;;19.80;21.50;;;;;;5033391;28;20210;-50
2021/01/17 04:51:31;;;;;;;1.40;1.25;;;19.90;21.50;;;;;;5033238;28;20179;-50
2021/01/17 04:54:04;;;;;;;1.80;1.70;;;19.90;21.50;;;;;;5032964;28;20160;-50
2021/01/17 04:56:32;;;;;;;1.40;1.30;;;19.90;21.50;;;;;;5033282;28;20162;-50
2021/01/17 04:59:13;;;;;;;1.73;1.63;;;19.90;21.60;;;;;;5015540;28;20508;-49
2021/01/17 05:01:48;;;;;;;1.92;1.70;;;19.90;21.50;;;;;;5033236;28;20207;-49
2021/01/17 05:04:26;;;;;;;1.90;1.70;;;19.90;21.60;;;;;;5033025;28;20163;-50
2021/01/17 05:06:57;;;;;;;1.70;1.45;;;19.90;24.70;;;;;;5033142;28;20262;-50
2021/01/17 05:09:40;;;;;;;1.58;1.48;;;19.90;27.70;;;;;;5032644;28;20160;-50
2021/01/17 05:12:15;;;;;;;1.83;1.73;;;19.90;26.40;;;;;;5033718;28;20214;-50
2021/01/17 05:14:53;;;;;;;2.03;1.80;;;19.90;27.10;;;;;;5037032;28;20163;-49
2021/01/17 05:17:23;;;;;;;1.90;1.75;;;19.90;27.80;;;;;;5036784;28;20190;-50
2021/01/17 05:19:49;;;;;;;2.00;1.90;;;19.90;27.40;;;;;;5036871;28;20168;-50
2021/01/17 05:22:15;;;;;;;2.50;1.70;;;19.90;28.00;;;;;;5036362;28;20163;-49
2021/01/17 05:24:44;;;;;;;1.50;1.40;;;19.90;27.90;;;;;;5036886;28;20168;-50
2021/01/17 05:27:10;;;;;;;2.10;1.98;;;19.90;27.50;;;;;;5036644;28;20242;-51
2021/01/17 05:29:36;;;;;;;1.37;1.27;;;19.90;28.80;;;;;;5036791;28;20191;-49
2021/01/17 05:32:06;;;;;;;1.70;1.60;;;19.90;29.10;;;;;;5036605;28;20206;-49
2021/01/17 05:34:32;;;;;;;1.60;1.50;;;19.90;29.30;;;;;;5036635;28;20619;-50
2021/01/17 05:37:01;;;;;;;2.00;1.90;;;20.00;29.60;;;;;;5036729;28;20196;-49
2021/01/17 05:39:27;;;;;;;1.80;1.70;;;20.00;21.00;;;;;;5036080;28;20202;-50
2021/01/17 05:41:52;;;;;;;1.87;1.77;;;20.00;21.50;;;;;;5036674;28;20511;-50
2021/01/17 05:44:30;;;;;;;1.77;1.37;;;20.00;21.50;;;;;;5036438;28;20158;-50
2021/01/17 05:47:05;;;;;;;1.65;1.55;;;19.90;21.40;;;;;;5036368;28;20152;-50
2021/01/17 05:49:32;;;;;;;1.80;1.70;;;20.00;21.40;;;;;;5036364;28;20206;-50
2021/01/17 05:52:30;;;;;;;1.50;1.40;;;20.00;21.40;;;;;;5036213;28;20182;-50
2021/01/17 05:54:56;;;;;;;1.40;1.30;;;20.00;21.50;;;;;;4992758;28;20660;-50
2021/01/17 05:57:25;;;;;;;1.33;1.23;;;20.00;21.40;;;;;;5035994;28;20196;-50
2021/01/17 05:59:52;;;;;;;1.65;1.55;;;20.00;21.40;;;;;;5036145;28;20914;-49
2021/01/17 06:02:19;;;;;;;1.40;1.30;;;20.00;21.40;;;;;;5035919;28;20180;-50
2021/01/17 06:04:56;;;;;;;1.67;1.58;;;20.00;21.40;;;;;;5036204;28;20175;-50
2021/01/17 06:07:27;;;;;;;1.80;1.70;;;20.00;21.40;;;;;;5035410;28;20248;-50
2021/01/17 06:10:01;;;;;;;1.70;1.60;;;20.00;21.40;;;;;;5036066;28;20160;-50
2021/01/17 06:12:36;;;;;;;1.40;1.30;;;20.00;21.40;;;;;;5035712;28;20160;-50
2021/01/17 06:15:09;;;;;;;1.75;1.65;;;20.00;21.40;;;;;;5035982;28;20170;-50
2021/01/17 06:17:38;;;;;;;1.50;1.30;;;20.00;21.40;;;;;;5035485;28;20206;-50
2021/01/17 06:20:08;;;;;;;1.40;1.30;;;20.00;21.40;;;;;;5035705;28;20155;-50
2021/01/17 06:22:35;;;;;;;1.40;1.30;;;20.00;21.40;;;;;;5035328;28;20186;-50
2021/01/17 06:25:05;;;;;;;1.70;1.60;;;20.00;21.40;;;;;;5034933;28;20639;-50
2021/01/17 06:27:31;;;;;;;1.23;1.13;;;20.00;21.40;;;;;;5035514;28;20190;-50
2021/01/17 06:29:57;;;;;;;1.60;1.50;;;20.00;21.40;;;;;;5035760;28;20167;-50
2021/01/17 06:32:30;;;;;;;1.50;1.40;;;20.00;21.30;;;;;;5035407;28;20286;-52
2021/01/17 06:34:57;;;;;;;1.52;1.42;;;20.00;21.30;;;;;;5035590;28;20164;-49
2021/01/17 06:37:25;;;;;;;1.50;1.40;;;20.00;21.30;;;;;;5035025;28;20698;-50
2021/01/17 06:39:55;;;;;;;1.50;1.40;;;20.00;21.90;;;;;;5035363;28;20164;-50
2021/01/17 06:42:22;;;;;;;2.20;2.00;;;20.00;21.40;;;;;;5035306;28;20160;-50
2021/01/17 06:44:50;;;;;;;1.30;1.20;;;20.00;21.30;;;;;;5035403;28;20642;-50
2021/01/17 06:47:24;;;;;;;1.60;1.50;;;20.00;21.30;;;;;;5035534;28;20164;-50
2021/01/17 06:49:52;;;;;;;1.73;1.63;;;20.00;21.30;;;;;;5035395;28;20159;-50
2021/01/17 06:52:18;;;;;;;1.70;1.60;;;20.00;21.30;;;;;;5034687;28;20615;-51
2021/01/17 06:54:49;;;;;;;1.33;1.23;;;20.00;21.30;;;;;;5035274;28;20164;-51
2021/01/17 06:57:16;;;;;;;2.35;2.15;;;20.00;21.30;;;;;;5034930;28;20222;-49
2021/01/17 06:59:51;;;;;;;2.33;1.75;;;20.10;21.40;;;;;;5034978;28;20202;-49
2021/01/17 07:02:25;;;;;;;1.38;1.27;;;20.10;21.30;;;;;;5035149;28;20241;-49
2021/01/17 07:05:12;;;;;;;1.90;1.80;;;20.10;21.40;;;;;;5034982;28;20242;-49
2021/01/17 07:08:03;;;;;;;1.60;1.50;;;20.10;21.30;;;;;;5034233;28;20223;-49
2021/01/17 07:10:41;;;;;;;1.90;1.80;;;20.10;21.30;;;;;;5016973;28;20245;-49
2021/01/17 07:13:17;;;;;;;2.10;1.90;;;20.00;21.30;;;;;;5034710;28;20250;-49
2021/01/17 07:15:43;;;;;;;1.85;1.75;;;20.10;21.30;;;;;;5034558;28;20164;-49
2021/01/17 07:18:14;;;;;;;1.80;1.70;;;20.10;21.30;;;;;;5034517;28;20188;-49
2021/01/17 07:20:42;;;;;;;1.60;1.50;;;20.10;21.30;;;;;;5034684;28;20167;-49
2021/01/17 07:23:09;;;;;;;1.42;1.33;;;20.10;21.30;;;;;;5034234;28;20163;-49
2021/01/17 07:25:37;;;;;;;1.50;1.40;;;20.10;21.30;;;;;;5034668;28;20152;-49
2021/01/17 07:28:13;;;;;;;1.80;1.70;;;20.10;21.30;;;;;;5034389;28;20251;-50
2021/01/17 07:30:45;;;;;;;1.70;1.60;;;20.10;21.30;;;;;;5034594;28;20160;-50
2021/01/17 07:33:22;;;;;;;1.50;1.40;;;20.10;21.30;;;;;;5034427;28;20174;-50
2021/01/17 07:35:48;;;;;;;1.52;1.42;;;20.10;21.20;;;;;;5034320;28;20159;-50
2021/01/17 07:38:13;;;;;;;2.17;2.07;;;20.10;21.50;;;;;;5033671;28;20195;-50
2021/01/17 07:41:16;;;;;;;1.57;1.47;;;20.10;21.20;;;;;;5034270;28;20601;-50
2021/01/17 07:43:42;;;;;;;1.45;1.35;;;20.10;21.20;;;;;;5029143;28;20172;-50
2021/01/17 07:46:17;;;;;;;1.55;1.45;;;20.10;21.20;;;;;;5034450;28;20163;-50
2021/01/17 07:48:47;;;;;;;1.70;1.60;;;20.10;21.20;;;;;;5034048;28;20147;-50
2021/01/17 07:51:15;;;;;;;2.05;1.95;;;20.10;21.20;;;;;;5034117;28;20175;-50
2021/01/17 07:54:08;;;;;;;1.85;1.73;;;20.10;21.20;;;;;;5033558;28;20179;-50
2021/01/17 07:56:37;;;;;;;1.55;1.45;;;20.10;21.20;;;;;;5034060;28;20170;-50
2021/01/17 07:59:07;;;;;;;1.70;1.60;;;20.10;21.20;;;;;;5033875;28;20675;-50
2021/01/17 08:01:33;;;;;;;1.70;1.60;;;20.20;21.20;;;;;;5033825;28;20207;-49
2021/01/17 08:04:02;;;;;;;1.67;1.33;;;20.20;21.20;;;;;;5033840;28;20247;-49
2021/01/17 08:06:34;;;;;;;1.73;1.63;;;20.20;21.20;;;;;;5033537;28;20602;-50
2021/01/17 08:09:06;;;;;;;1.90;1.80;;;20.20;21.20;;;;;;5033498;28;20160;-50
2021/01/17 08:11:55;;;;;;;1.83;1.73;;;20.20;21.20;;;;;;5033666;28;20202;-50
2021/01/17 08:14:26;;;;;;;1.60;1.50;;;20.20;21.20;;;;;;5033580;28;20152;-50
2021/01/17 08:17:10;;;;;;;1.48;1.25;;;20.20;21.20;;;;;;5033827;28;20186;-49
2021/01/17 08:19:57;;;;;;;1.60;1.30;;;20.20;21.10;;;;;;5033642;28;20159;-51
2021/01/17 08:22:23;;;;;;;2.05;1.85;;;20.20;21.10;;;;;;5033336;28;20269;-50
2021/01/17 08:24:49;;;;;;;2.33;2.13;;;20.20;21.10;;;;;;5033719;28;20615;-50
2021/01/17 08:27:27;;;;;;;1.35;1.25;;;20.20;21.00;;;;;;5033404;28;20171;-50
2021/01/17 08:30:07;;;;;;;1.70;1.60;;;20.30;21.10;;;;;;5033628;28;20166;-50
2021/01/17 08:32:38;;;;;;;1.70;1.60;;;20.30;21.10;;;;;;5033331;28;20152;-50
2021/01/17 08:35:13;;;;;;;1.50;1.40;;;20.30;21.00;;;;;;5033577;28;20627;-50
2021/01/17 08:37:47;;;;;;;1.48;1.38;;;20.30;21.00;;;;;;5015063;28;20191;-49
2021/01/17 08:40:39;;;;;;;1.50;1.40;;;20.30;21.00;;;;;;5033446;28;20159;-50
2021/01/17 08:43:13;;;;;;;1.58;1.48;;;20.30;21.00;;;;;;5033117;28;20168;-50
2021/01/17 08:45:49;;;;;;;1.70;1.60;;;20.30;20.90;;;;;;5033454;28;20164;-50
2021/01/17 08:48:17;;;;;;;1.55;1.45;;;20.30;20.90;;;;;;5036012;28;20171;-50
2021/01/17 08:50:47;;;;;;;1.60;1.50;;;20.30;20.90;;;;;;5037595;28;20170;-50
2021/01/17 08:53:32;;;;;;;1.45;1.35;;;20.40;20.90;;;;;;5036997;28;20179;-51
2021/01/17 08:56:19;;;;;;;1.50;1.40;;;20.40;20.90;;;;;;5037310;28;20201;-49
2021/01/17 08:58:47;;;;;;;1.55;1.45;;;20.40;20.80;;;;;;5037369;28;20188;-49
2021/01/17 09:01:14;;;;;;;1.90;1.75;;;20.40;20.80;;;;;;5037066;28;20654;-50
2021/01/17 09:03:43;;;;;;;1.80;1.70;;;20.40;20.80;;;;;;5037263;28;20163;-50
2021/01/17 09:06:15;;;;;;;1.60;1.50;;;20.40;20.80;;;;;;5036949;28;20219;-49
2021/01/17 09:08:59;;;;;;;1.60;1.50;;;20.40;20.80;;;;;;5036665;28;20191;-49
2021/01/17 09:11:24;;;;;;;2.03;1.83;;;20.50;20.80;;;;;;5036799;28;20625;-49
2021/01/17 09:14:13;;;;;;;1.67;1.57;;;20.50;20.70;;;;;;5037021;28;20160;-51
2021/01/17 09:16:44;;;;;;;1.50;1.40;;;20.50;20.70;;;;;;5036908;28;20178;-49
2021/01/17 09:19:10;;;;;;;2.13;2.00;;;20.50;20.60;;;;;;5036803;28;20159;-50
2021/01/17 09:21:37;;;;;;;1.80;1.70;;;20.50;20.60;;;;;;5036849;28;20164;-50
2021/01/17 09:24:17;;;;;;;1.60;1.40;;;20.50;20.60;;;;;;5036389;28;20164;-50
2021/01/17 09:26:52;;;;;;;1.50;1.38;;;20.50;20.60;;;;;;5036868;28;20164;-50
2021/01/17 09:29:45;;;;;;;1.58;1.48;;;20.50;20.80;;;;;;5036985;28;20167;-50
2021/01/17 09:32:15;;;;;;;1.80;1.70;;;20.50;20.60;;;;;;5036043;28;20245;-50
2021/01/17 09:34:46;;;;;;;2.20;1.85;;;20.60;20.70;;;;;;5036851;28;20172;-49
2021/01/17 09:37:17;;;;;;;2.00;1.90;;;20.60;20.70;;;;;;5035954;28;20195;-50
2021/01/17 09:39:48;;;;;;;1.35;1.25;;;20.60;20.70;;;;;;5036557;28;20155;-50
2021/01/17 09:42:15;;;;;;;1.40;1.30;;;20.60;20.70;;;;;;5036468;28;20152;-51
2021/01/17 09:44:42;;;;;;;2.08;1.98;;;20.60;20.70;;;;;;5018946;28;20199;-50
2021/01/17 09:47:23;;;;;;;2.08;1.50;;;20.60;20.70;;;;;;5036322;28;20242;-49
2021/01/17 09:49:49;;;;;;;1.83;1.38;;;20.60;20.70;;;;;;5018606;28;20218;-50
2021/01/17 09:52:18;;;;;;;1.70;1.60;;;20.70;20.70;;;;;;5035926;28;20243;-49
2021/01/17 09:54:51;;;;;;;1.70;1.60;;;20.70;20.70;;;;;;5036103;28;20152;-50
2021/01/17 09:57:21;;;;;;;1.85;1.75;;;20.60;20.70;;;;;;5036069;28;20183;-50
2021/01/17 09:59:53;;;;;;;1.60;1.50;;;20.70;20.70;;;;;;5034827;28;20539;-50
2021/01/17 10:02:23;;;;;;;2.28;2.08;;;20.70;20.70;;;;;;5035940;28;20254;-50
2021/01/17 10:04:50;;;;;;;1.40;1.30;;;20.70;20.70;;;;;;5036213;28;20156;-49
2021/01/17 10:07:17;;;;;;;1.70;1.60;;;20.70;20.70;;;;;;5035354;28;20219;-50
2021/01/17 10:09:45;;;;;;;1.70;1.60;;;20.70;20.70;;;;;;5035788;28;20182;-50
2021/01/17 10:12:11;;;;;;;1.75;1.65;;;20.80;20.80;;;;;;5035874;28;20221;-50
2021/01/17 10:14:37;;;;;;;1.60;1.25;;;20.80;20.80;;;;;;5036005;28;20156;-50
2021/01/17 10:17:06;;;;;;;1.92;1.83;;;20.80;20.80;;;;;;5035681;28;20634;-50
2021/01/17 10:19:34;;;;;;;1.85;1.75;;;20.80;20.70;;;;;;5035753;28;20160;-49
2021/01/17 10:22:01;;;;;;;1.70;1.60;;;20.80;20.70;;;;;;5035893;28;20167;-51
2021/01/17 10:24:29;;;;;;;1.45;1.35;;;20.80;20.60;;;;;;5035023;28;20658;-52
2021/01/17 10:26:57;;;;;;;2.00;1.80;;;20.80;20.60;;;;;;5035779;28;20170;-49
2021/01/17 10:29:28;;;;;;;1.80;1.70;;;20.80;20.60;;;;;;5035391;28;20179;-50
2021/01/17 10:32:00;;;;;;;1.63;1.52;;;20.90;20.60;;;;;;5035614;28;20160;-49
2021/01/17 10:34:35;;;;;;;2.10;1.90;;;20.90;20.70;;;;;;5035382;28;20194;-49
2021/01/17 10:37:04;;;;;;;1.40;1.30;;;20.80;20.80;;;;;;5035382;28;20659;-50
2021/01/17 10:39:31;;;;;;;1.60;1.50;;;20.90;21.40;;;;;;5035230;28;20187;-50
2021/01/17 10:42:04;;;;;;;1.80;1.70;;;20.80;20.50;;;;;;5035530;28;20210;-49
2021/01/17 10:44:34;;;;;;;1.67;1.58;;;20.80;20.50;;;;;;5035229;28;20199;-50
2021/01/17 10:47:12;;;;;;;1.73;1.63;;;20.90;20.60;;;;;;5035053;28;20204;-50
2021/01/17 10:49:41;;;;;;;1.90;1.80;;;20.90;20.60;;;;;;5035176;28;20162;-49
2021/01/17 10:52:18;;;;;;;1.55;1.45;;;20.90;20.50;;;;;;5034734;28;20187;-49
2021/01/17 10:54:45;;;;;;;1.65;1.55;;;20.90;20.50;;;;;;5035071;28;20186;-50
2021/01/17 10:57:13;;;;;;;1.98;1.80;;;20.90;20.50;;;;;;5034888;28;20205;-50
2021/01/17 10:59:39;;;;;;;1.50;1.40;;;20.90;20.40;;;;;;5034985;28;20160;-50
2021/01/17 11:02:06;;;;;;;2.17;1.95;;;20.90;20.40;;;;;;5034907;28;20224;-49
2021/01/17 11:04:47;;;;;;;1.70;1.60;;;20.90;20.40;;;;;;5034875;28;20152;-50
2021/01/17 11:07:19;;;;;;;1.10;1.05;;;20.90;20.30;;;;;;5034288;28;20224;-50
2021/01/17 11:09:45;;;;;;;1.50;1.40;;;21.00;20.40;;;;;;5034577;28;20152;-48
2021/01/17 11:12:10;;;;;;;1.60;1.50;;;21.00;20.40;;;;;;5034609;28;20599;-49
2021/01/17 11:14:36;;;;;;;1.53;1.43;;;20.90;20.30;;;;;;5034945;28;20164;-50
2021/01/17 11:17:02;;;;;;;1.57;1.47;;;21.00;20.40;;;;;;5034614;28;20180;-50
2021/01/17 11:19:33;;;;;;;2.00;1.90;;;21.00;20.30;;;;;;5034856;28;20164;-50
2021/01/17 11:22:00;;;;;;;2.20;1.92;;;21.00;20.30;;;;;;5034600;28;20402;-49
2021/01/17 11:24:40;;;;;;;1.40;1.30;;;21.00;20.30;;;;;;5034105;28;20188;-50
2021/01/17 11:27:15;;;;;;;2.00;1.90;;;21.00;20.30;;;;;;5034448;28;20244;-49
2021/01/17 11:29:44;;;;;;;1.70;1.60;;;21.00;20.30;;;;;;5034453;28;20156;-50
2021/01/17 11:32:11;;;;;;;1.48;1.38;;;21.00;20.30;;;;;;5034437;28;20634;-50
2021/01/17 11:34:39;;;;;;;1.85;1.60;;;21.00;20.30;;;;;;5034628;28;20179;-50
2021/01/17 11:37:06;;;;;;;1.70;1.60;;;21.00;20.30;;;;;;5034225;28;20160;-49
2021/01/17 11:39:33;;;;;;;1.50;1.40;;;21.00;20.30;;;;;;5034086;28;20168;-51
2021/01/17 11:41:59;;;;;;;1.45;1.35;;;21.00;20.30;;;;;;5034495;28;20180;-49
2021/01/17 11:44:34;;;;;;;1.40;1.30;;;21.00;20.30;;;;;;5016557;28;20148;-50
2021/01/17 11:47:02;;;;;;;1.73;1.63;;;21.00;20.30;;;;;;5034196;28;20156;-49
2021/01/17 11:49:29;;;;;;;1.45;1.35;;;21.00;20.30;;;;;;5033801;28;20619;-49
2021/01/17 11:51:55;;;;;;;1.80;1.70;;;21.00;20.30;;;;;;5016365;28;20171;-50
2021/01/17 11:54:26;;;;;;;1.65;1.55;;;21.00;20.40;;;;;;5033494;28;20156;-50
2021/01/17 11:57:03;;;;;;;1.67;1.58;;;21.00;20.40;;;;;;5034083;28;20152;-49
2021/01/17 11:59:31;;;;;;;1.67;1.58;;;20.90;20.30;;;;;;5033796;28;20152;-49
2021/01/17 12:02:14;;;;;;;1.30;1.20;;;21.00;20.40;;;;;;5033763;28;20179;-50
2021/01/17 12:04:42;;;;;;;1.45;1.35;;;21.00;20.40;;;;;;5033732;28;20534;-49
2021/01/17 12:07:08;;;;;;;1.73;1.63;;;20.90;20.40;;;;;;5033277;28;20234;-52
2021/01/17 12:09:34;;;;;;;1.87;1.70;;;20.90;20.40;;;;;;5033732;28;20156;-50
2021/01/17 12:12:16;;;;;;;2.00;1.90;;;20.90;20.40;;;;;;5033617;28;20180;-50
2021/01/17 12:14:43;;;;;;;1.70;1.60;;;20.90;20.40;;;;;;5033861;28;20183;-56
2021/01/17 12:17:10;;;;;;;2.00;1.90;;;20.90;20.40;;;;;;5033170;28;20183;-52
2021/01/17 12:19:36;;;;;;;1.60;1.50;;;20.90;20.40;;;;;;5033620;28;20472;-50
2021/01/17 12:22:06;;;;;;;2.40;2.03;;;20.90;20.40;;;;;;5032856;28;20166;-49
2021/01/17 12:24:34;;;;;;;1.40;1.30;;;20.90;20.40;;;;;;5033667;28;20160;-50
2021/01/17 12:27:01;;;;;;;1.83;1.65;;;20.90;20.40;;;;;;5015737;28;20251;-52
2021/01/17 12:29:27;;;;;;;2.15;1.95;;;20.90;20.40;;;;;;5033533;28;20235;-51
2021/01/17 12:31:53;;;;;;;2.00;1.80;;;20.90;20.50;;;;;;5033555;28;20558;-50
2021/01/17 12:34:19;;;;;;;1.92;1.33;;;20.90;20.40;;;;;;5033289;28;20152;-51
2021/01/17 12:36:46;;;;;;;1.50;1.40;;;20.90;20.40;;;;;;5033601;28;20188;-49
2021/01/17 12:39:15;;;;;;;1.92;1.80;;;20.90;20.40;;;;;;5032900;28;20187;-50
2021/01/17 12:41:45;;;;;;;1.73;1.63;;;20.90;21.00;;;;;;5033531;28;20159;-50
2021/01/17 12:44:15;;;;;;;1.80;1.70;;;20.90;20.40;;;;;;5033321;28;20152;-51
2021/01/17 12:46:42;;;;;;;1.30;1.20;;;20.90;20.50;;;;;;5033504;28;20155;-50
2021/01/17 12:49:08;;;;;;;1.65;1.55;;;20.90;20.50;;;;;;5033169;28;20208;-49
2021/01/17 12:51:33;;;;;;;1.50;1.40;;;20.90;20.50;;;;;;5033415;28;20568;-50
2021/01/17 12:54:00;;;;;;;2.10;1.93;;;20.90;20.50;;;;;;5032893;28;20407;-49
2021/01/17 12:56:25;;;;;;;2.15;1.95;;;20.90;20.50;;;;;;5033217;28;20161;-51
2021/01/17 12:58:51;;;;;;;2.07;1.87;;;20.90;20.60;;;;;;5033203;28;20278;-51
2021/01/17 13:01:17;;;;;;;1.83;1.60;;;20.90;20.50;;;;;;5033198;28;20213;-50